Decoded Metar for KFVE (FRENCHVILLE in ME, USA) (IATA:FVE) | Meteo·Mobile Aviation Weather
aviador You're here:

KFVE Decoded Metar

FRENCHVILLE in ME, USA
Report Time2019-01-17 23:53:00
UTC Time2019-01-18 00:09:43
Flight Rules vfr VFR
Wind160° at 05 kt
W.Decomp.*RWY 14: 3.9 kt HW 3.1 kt RCW
W.Rank160° ranks 7
Current wind is below 160° avg. (8.1)
Visibility9999 m
Phenomena:N/A
Clouds:N/A
Expected CloudBase > 2,800 ft AGL from Temp-Dew spread
CeilingNone
Temp-19°C (ISA -32)
Dew Point-26°C (54% RH)
AAT-24.6°C
QNH1023 hPa
Density Alt-3,425 ft
Elevation988 ft
Report Wrong Elevation
Raw Report
KFVE 172353Z AUTO 16005KT 10SM CLR M19/M26 A3021 RMK AO2 SLP260
T11941261 11178 21194 53004=

Extra information for KFVE:More info

Metar Taf Metar & Taf Last 4 Metars F.Rules Stats Wind Profile Meteogram Temp Stats Airport Information Weather charts Add Link Nearby VenuesMetar ALERT Operation Metar Decoded Social comments

AIRNAV info for KFVE